GLD1974 LPLA-LPPD
Flight info
| Callsign | GLD1974 |
|---|---|
| Flight time | 0h 29m |
| Altitude | 15000 |
| Route | MIPRU |
| Aircraft | A319/M-SDE3FGHIRWY/LB1 |
Departure
| Time | 2026-05-06 20:22 |
|---|---|
| Airport | Lajes Airport (LPLA) |
Arrival
| Time | 2026-05-06 20:51 |
|---|---|
| Airport | João Paulo II Airport (LPPD) |
| Time | Latitude | Longitude | Altitude | Speed | Heading |
|---|---|---|---|---|---|
| 2026-05-06 19:48 | 38.75636 | -27.08830 | 179 ft | 0 kts | 320° |
| 2026-05-06 20:18 | 38.75637 | -27.08831 | 206 ft | 1 kts | 320° |
| 2026-05-06 20:18 | 38.75645 | -27.08838 | 178 ft | 1 kts | 333° |
| 2026-05-06 20:18 | 38.75661 | -27.08836 | 179 ft | 3 kts | 15° |
| 2026-05-06 20:19 | 38.75673 | -27.08804 | 179 ft | 5 kts | 93° |
| 2026-05-06 20:19 | 38.75643 | -27.08760 | 179 ft | 8 kts | 142° |
| 2026-05-06 20:19 | 38.75592 | -27.08717 | 178 ft | 9 kts | 149° |
| 2026-05-06 20:19 | 38.75542 | -27.08657 | 178 ft | 10 kts | 140° |
| 2026-05-06 20:20 | 38.75484 | -27.08599 | 178 ft | 11 kts | 143° |
| 2026-05-06 20:20 | 38.75460 | -27.08522 | 178 ft | 11 kts | 55° |
| 2026-05-06 20:20 | 38.75509 | -27.08448 | 178 ft | 11 kts | 49° |
| 2026-05-06 20:20 | 38.75573 | -27.08442 | 179 ft | 11 kts | 324° |
| 2026-05-06 20:21 | 38.75587 | -27.08456 | 179 ft | 0 kts | 323° |
| 2026-05-06 20:21 | 38.75624 | -27.08493 | 179 ft | 32 kts | 321° |
| 2026-05-06 20:22 | 38.76017 | -27.08905 | 182 ft | 111 kts | 320° |
| 2026-05-06 20:22 | 38.76767 | -27.09690 | 250 ft | 161 kts | 320° |
| 2026-05-06 20:22 | 38.77647 | -27.10586 | 881 ft | 162 kts | 319° |
| 2026-05-06 20:22 | 38.78524 | -27.11485 | 1575 ft | 161 kts | 318° |
| 2026-05-06 20:23 | 38.79421 | -27.12414 | 2112 ft | 175 kts | 318° |
| 2026-05-06 20:23 | 38.80431 | -27.13467 | 2510 ft | 198 kts | 318° |
| 2026-05-06 20:23 | 38.81573 | -27.14659 | 2913 ft | 225 kts | 318° |
| 2026-05-06 20:23 | 38.82850 | -27.15990 | 3460 ft | 248 kts | 319° |
| 2026-05-06 20:24 | 38.84222 | -27.17417 | 4322 ft | 257 kts | 319° |
| 2026-05-06 20:24 | 38.85623 | -27.18856 | 5388 ft | 259 kts | 320° |
| 2026-05-06 20:24 | 38.86920 | -27.20454 | 6396 ft | 259 kts | 301° |
| 2026-05-06 20:24 | 38.87512 | -27.22614 | 7339 ft | 260 kts | 274° |
| 2026-05-06 20:25 | 38.87208 | -27.24889 | 8338 ft | 264 kts | 248° |
| 2026-05-06 20:25 | 38.86096 | -27.26796 | 9303 ft | 274 kts | 225° |
| 2026-05-06 20:25 | 38.84393 | -27.27997 | 10192 ft | 290 kts | 200° |
| 2026-05-06 20:25 | 38.82319 | -27.28136 | 10794 ft | 316 kts | 173° |
| 2026-05-06 20:26 | 38.80233 | -27.26917 | 11094 ft | 348 kts | 144° |
| 2026-05-06 20:26 | 38.78410 | -27.24700 | 11363 ft | 373 kts | 133° |
| 2026-05-06 20:26 | 38.76713 | -27.22118 | 11957 ft | 383 kts | 129° |
| 2026-05-06 20:26 | 38.75077 | -27.19373 | 12652 ft | 390 kts | 127° |
| 2026-05-06 20:27 | 38.73431 | -27.16573 | 13353 ft | 396 kts | 128° |
| 2026-05-06 20:27 | 38.71734 | -27.13767 | 14042 ft | 402 kts | 129° |
| 2026-05-06 20:27 | 38.69970 | -27.10963 | 14679 ft | 406 kts | 130° |
| 2026-05-06 20:27 | 38.68183 | -27.08213 | 15004 ft | 408 kts | 131° |
| 2026-05-06 20:28 | 38.66318 | -27.05404 | 15137 ft | 413 kts | 132° |
| 2026-05-06 20:28 | 38.64397 | -27.02536 | 15161 ft | 435 kts | 132° |
| 2026-05-06 20:28 | 38.62428 | -26.99594 | 15157 ft | 443 kts | 132° |
| 2026-05-06 20:28 | 38.60425 | -26.96584 | 15158 ft | 444 kts | 131° |
| 2026-05-06 20:29 | 38.58428 | -26.93571 | 15156 ft | 445 kts | 131° |
| 2026-05-06 20:29 | 38.56433 | -26.90548 | 15155 ft | 445 kts | 131° |
| 2026-05-06 20:29 | 38.54439 | -26.87523 | 15150 ft | 445 kts | 131° |
| 2026-05-06 20:29 | 38.52438 | -26.84490 | 15156 ft | 445 kts | 131° |
| 2026-05-06 20:30 | 38.50443 | -26.81471 | 15157 ft | 445 kts | 131° |
| 2026-05-06 20:30 | 38.46437 | -26.75431 | 15160 ft | 445 kts | 132° |
| 2026-05-06 20:30 | 38.44433 | -26.72418 | 15160 ft | 445 kts | 132° |
| 2026-05-06 20:31 | 38.42430 | -26.69407 | 15160 ft | 445 kts | 132° |
| 2026-05-06 20:31 | 38.40423 | -26.66394 | 15161 ft | 445 kts | 132° |
| 2026-05-06 20:31 | 38.38421 | -26.63389 | 15148 ft | 445 kts | 132° |
| 2026-05-06 20:31 | 38.36437 | -26.60421 | 15154 ft | 445 kts | 132° |
| 2026-05-06 20:32 | 38.34428 | -26.57418 | 15156 ft | 445 kts | 132° |
| 2026-05-06 20:32 | 38.32418 | -26.54416 | 15165 ft | 445 kts | 132° |
| 2026-05-06 20:32 | 38.30404 | -26.51408 | 15165 ft | 445 kts | 132° |
| 2026-05-06 20:32 | 38.28395 | -26.48408 | 15165 ft | 445 kts | 132° |
| 2026-05-06 20:33 | 38.26386 | -26.45411 | 15167 ft | 445 kts | 132° |
| 2026-05-06 20:33 | 38.24376 | -26.42416 | 15168 ft | 445 kts | 132° |
| 2026-05-06 20:33 | 38.22362 | -26.39420 | 15155 ft | 445 kts | 133° |
| 2026-05-06 20:33 | 38.20351 | -26.36425 | 15159 ft | 445 kts | 133° |
| 2026-05-06 20:34 | 38.18341 | -26.33432 | 15165 ft | 445 kts | 133° |
| 2026-05-06 20:34 | 38.16332 | -26.30444 | 15170 ft | 445 kts | 133° |
| 2026-05-06 20:34 | 38.14317 | -26.27449 | 15174 ft | 445 kts | 133° |
| 2026-05-06 20:34 | 38.12300 | -26.24458 | 15181 ft | 445 kts | 133° |
| 2026-05-06 20:35 | 38.10287 | -26.21476 | 15181 ft | 446 kts | 133° |
| 2026-05-06 20:35 | 38.08271 | -26.18494 | 15059 ft | 440 kts | 133° |
| 2026-05-06 20:35 | 38.06305 | -26.15587 | 14823 ft | 429 kts | 133° |
| 2026-05-06 20:35 | 38.04374 | -26.12735 | 14315 ft | 424 kts | 133° |
| 2026-05-06 20:36 | 38.02474 | -26.09938 | 13666 ft | 423 kts | 133° |
| 2026-05-06 20:36 | 38.00539 | -26.07093 | 13019 ft | 419 kts | 133° |
| 2026-05-06 20:36 | 37.98667 | -26.04340 | 12369 ft | 415 kts | 133° |
| 2026-05-06 20:36 | 37.96793 | -26.01585 | 11698 ft | 411 kts | 133° |
| 2026-05-06 20:37 | 37.94933 | -25.98853 | 11104 ft | 405 kts | 133° |
| 2026-05-06 20:37 | 37.93136 | -25.96214 | 10936 ft | 386 kts | 133° |
| 2026-05-06 20:37 | 37.91451 | -25.93730 | 10797 ft | 357 kts | 133° |
| 2026-05-06 20:37 | 37.89892 | -25.91427 | 10673 ft | 332 kts | 134° |
| 2026-05-06 20:38 | 37.88435 | -25.89282 | 10549 ft | 311 kts | 134° |
| 2026-05-06 20:38 | 37.87066 | -25.87273 | 10417 ft | 292 kts | 134° |
| 2026-05-06 20:38 | 37.85765 | -25.85372 | 10360 ft | 277 kts | 134° |
| 2026-05-06 20:38 | 37.84932 | -25.84156 | 10309 ft | 275 kts | 134° |
| 2026-05-06 20:39 | 37.83683 | -25.82338 | 10192 ft | 273 kts | 134° |
| 2026-05-06 20:39 | 37.82440 | -25.80526 | 9901 ft | 273 kts | 134° |
| 2026-05-06 20:39 | 37.81209 | -25.78727 | 9524 ft | 269 kts | 134° |
| 2026-05-06 20:39 | 37.79988 | -25.76949 | 9090 ft | 268 kts | 134° |
| 2026-05-06 20:40 | 37.78771 | -25.75178 | 8669 ft | 265 kts | 134° |
| 2026-05-06 20:40 | 37.77568 | -25.73426 | 8322 ft | 263 kts | 134° |
| 2026-05-06 20:40 | 37.76371 | -25.71682 | 7986 ft | 262 kts | 134° |
| 2026-05-06 20:40 | 37.75182 | -25.69951 | 7637 ft | 260 kts | 134° |
| 2026-05-06 20:41 | 37.73997 | -25.68227 | 7321 ft | 259 kts | 133° |
| 2026-05-06 20:41 | 37.72795 | -25.66542 | 6987 ft | 257 kts | 136° |
| 2026-05-06 20:41 | 37.71549 | -25.64937 | 6654 ft | 255 kts | 137° |
| 2026-05-06 20:41 | 37.70282 | -25.63359 | 6309 ft | 256 kts | 137° |
| 2026-05-06 20:42 | 37.69012 | -25.61789 | 5969 ft | 255 kts | 137° |
| 2026-05-06 20:42 | 37.67748 | -25.60224 | 5635 ft | 254 kts | 137° |
| 2026-05-06 20:42 | 37.66489 | -25.58660 | 5306 ft | 254 kts | 137° |
| 2026-05-06 20:42 | 37.65230 | -25.57095 | 4975 ft | 254 kts | 137° |
| 2026-05-06 20:43 | 37.63976 | -25.55533 | 4640 ft | 253 kts | 137° |
| 2026-05-06 20:43 | 37.62740 | -25.53993 | 4309 ft | 252 kts | 137° |
| 2026-05-06 20:43 | 37.61494 | -25.52437 | 3977 ft | 251 kts | 137° |
| 2026-05-06 20:43 | 37.60254 | -25.50883 | 3655 ft | 250 kts | 137° |
| 2026-05-06 20:44 | 37.59215 | -25.49198 | 3582 ft | 239 kts | 116° |
| 2026-05-06 20:44 | 37.58810 | -25.47241 | 3584 ft | 224 kts | 92° |
| 2026-05-06 20:44 | 37.59014 | -25.45368 | 3584 ft | 209 kts | 69° |
| 2026-05-06 20:44 | 37.59713 | -25.43796 | 3590 ft | 206 kts | 47° |
| 2026-05-06 20:45 | 37.60802 | -25.42645 | 3591 ft | 204 kts | 25° |
| 2026-05-06 20:45 | 37.62123 | -25.42061 | 3589 ft | 200 kts | 4° |
| 2026-05-06 20:45 | 37.63500 | -25.42091 | 3594 ft | 197 kts | 343° |
| 2026-05-06 20:45 | 37.64763 | -25.42700 | 3590 ft | 194 kts | 324° |
| 2026-05-06 20:46 | 37.65770 | -25.43784 | 3588 ft | 189 kts | 306° |
| 2026-05-06 20:46 | 37.66422 | -25.45210 | 3588 ft | 189 kts | 289° |
| 2026-05-06 20:46 | 37.66909 | -25.46754 | 3590 ft | 189 kts | 290° |
| 2026-05-06 20:46 | 37.67398 | -25.48287 | 3540 ft | 188 kts | 290° |
| 2026-05-06 20:47 | 37.67888 | -25.49827 | 3354 ft | 190 kts | 290° |
| 2026-05-06 20:47 | 37.68379 | -25.51372 | 3113 ft | 189 kts | 290° |
| 2026-05-06 20:47 | 37.68866 | -25.52905 | 2866 ft | 187 kts | 290° |
| 2026-05-06 20:47 | 37.69349 | -25.54430 | 2614 ft | 186 kts | 290° |
| 2026-05-06 20:48 | 37.69828 | -25.55941 | 2395 ft | 183 kts | 289° |
| 2026-05-06 20:48 | 37.70294 | -25.57410 | 2111 ft | 176 kts | 290° |
| 2026-05-06 20:48 | 37.70732 | -25.58791 | 1881 ft | 162 kts | 289° |
| 2026-05-06 20:48 | 37.71122 | -25.60022 | 1660 ft | 143 kts | 290° |
| 2026-05-06 20:49 | 37.71478 | -25.61149 | 1470 ft | 135 kts | 290° |
| 2026-05-06 20:49 | 37.71818 | -25.62224 | 1299 ft | 129 kts | 289° |
| 2026-05-06 20:49 | 37.72149 | -25.63270 | 1129 ft | 127 kts | 289° |
| 2026-05-06 20:49 | 37.72480 | -25.64303 | 924 ft | 127 kts | 289° |
| 2026-05-06 20:50 | 37.72804 | -25.65337 | 753 ft | 126 kts | 288° |
| 2026-05-06 20:50 | 37.73145 | -25.66378 | 623 ft | 128 kts | 288° |
| 2026-05-06 20:50 | 37.73462 | -25.67420 | 471 ft | 125 kts | 288° |
| 2026-05-06 20:50 | 37.73776 | -25.68423 | 275 ft | 124 kts | 289° |
| 2026-05-06 20:51 | 37.74074 | -25.69375 | 218 ft | 102 kts | 292° |
| 2026-05-06 20:51 | 37.74278 | -25.70013 | 238 ft | 53 kts | 291° |
| 2026-05-06 20:51 | 37.74384 | -25.70354 | 253 ft | 37 kts | 291° |
| 2026-05-06 20:51 | 37.74473 | -25.70635 | 263 ft | 33 kts | 292° |
| 2026-05-06 20:52 | 37.74526 | -25.70798 | 269 ft | 17 kts | 291° |
| 2026-05-06 20:52 | 37.74571 | -25.70940 | 271 ft | 18 kts | 291° |
| 2026-05-06 20:52 | 37.74661 | -25.71026 | 272 ft | 13 kts | 358° |
| 2026-05-06 20:52 | 37.74745 | -25.71023 | 272 ft | 12 kts | 359° |
| 2026-05-06 20:53 | 37.74796 | -25.71091 | 272 ft | 11 kts | 294° |
| 2026-05-06 20:53 | 37.74826 | -25.71182 | 272 ft | 9 kts | 300° |
| 2026-05-06 20:53 | 37.74876 | -25.71179 | 273 ft | 7 kts | 24° |
| 2026-05-06 20:53 | 37.74899 | -25.71167 | 272 ft | 0 kts | 21° |